This is the latest recevied weather packets stored in our database for station/object W9PEM-13. If no packets are shown the sender has not sent any weather packets the latest 10 day(s).
| Time | Temp. | Humidity | Pressure | Rain* | Wind** | Luminosity | Snow |
|---|---|---|---|---|---|---|---|
| 1777787442 | 6.67° C | 63% | 982 hPa | 0 mm | - | 0 W/m² | - |
| 1777786842 | 7.22° C | 63% | 982.1 hPa | 0 mm | - | 0 W/m² | - |
| 1777786244 | 7.22° C | 63% | 982.2 hPa | 0 mm | - | 0 W/m² | - |
| 1777785643 | 6.67° C | 64% | 982.2 hPa | 0 mm | - | 0 W/m² | - |
| 1777785042 | 6.67° C | 65% | 982.4 hPa | 0 mm | - | 0 W/m² | - |
| 1777784443 | 7.22° C | 63% | 982.4 hPa | 0 mm | - | 0 W/m² | - |
| 1777783842 | 7.22° C | 62% | 982.4 hPa | 0 mm | - | 0 W/m² | - |
| 1777783242 | 7.22° C | 63% | 982.5 hPa | 0 mm | - | 0 W/m² | - |
| 1777782642 | 6.67° C | 65% | 982.5 hPa | 0 mm | - | 0 W/m² | - |
| 1777782042 | 6.11° C | 69% | 982.6 hPa | 0 mm | - | 0 W/m² | - |
| 1777781443 | 5.56° C | 73% | 982.7 hPa | 0 mm | - | 0 W/m² | - |
| 1777780843 | 5.56° C | 74% | 982.8 hPa | 0 mm | - | 0 W/m² | - |
| 1777780242 | 5.56° C | 74% | 982.9 hPa | 0 mm | - | 0 W/m² | - |
| 1777779042 | 5.56° C | 72% | 983 hPa | 0 mm | - | 0 W/m² | - |
| 1777778442 | 5° C | 74% | 983.2 hPa | 0 mm | - | 0 W/m² | - |
| 1777777842 | 4.44° C | 77% | 983.2 hPa | 0 mm | - | 0 W/m² | - |
| 1777777242 | 4.44° C | 76% | 983.4 hPa | 0 mm | - | 0 W/m² | - |
| 1777776642 | 4.44° C | 78% | 983.5 hPa | 0 mm | - | 0 W/m² | - |
| 1777776042 | 4.44° C | 79% | 983.5 hPa | 0 mm | - | 0 W/m² | - |
| 1777775442 | 5° C | 77% | 983.5 hPa | 0 mm | - | 0 W/m² | - |
| 1777774842 | 5.56° C | 76% | 983.6 hPa | 0 mm | - | 0 W/m² | - |
| 1777774242 | 5.56° C | 76% | 983.6 hPa | 0 mm | - | 0 W/m² | - |
| 1777773642 | 5.56° C | 76% | 983.6 hPa | 0 mm | - | 0 W/m² | - |
| 1777773041 | 5.56° C | 77% | 983.5 hPa | 0 mm | - | 0 W/m² | - |
| 1777772442 | 5.56° C | 75% | 983.5 hPa | 0 mm | - | 0 W/m² | - |
* Rain latest hour (hover to see other rain measurements)
** Current wind speed in m/s (hover to see current wind gust speed)